sensor_id;sensor_type;location;lat;lon;timestamp;temperature;humidity
59660;DHT22;45534;52.690;6.268;2023-02-18T00:01:12;8.50;99.90
59660;DHT22;45534;52.690;6.268;2023-02-18T00:03:39;8.50;99.90
59660;DHT22;45534;52.690;6.268;2023-02-18T00:06:22;8.60;99.90
59660;DHT22;45534;52.690;6.268;2023-02-18T00:08:49;8.60;99.90
59660;DHT22;45534;52.690;6.268;2023-02-18T00:11:16;8.60;99.90
59660;DHT22;45534;52.690;6.268;2023-02-18T00:13:42;8.60;99.90
59660;DHT22;45534;52.690;6.268;2023-02-18T00:16:10;8.60;99.90
59660;DHT22;45534;52.690;6.268;2023-02-18T00:18:37;8.60;99.90
59660;DHT22;45534;52.690;6.268;2023-02-18T00:21:04;8.60;99.90
59660;DHT22;45534;52.690;6.268;2023-02-18T00:23:31;8.60;99.90
59660;DHT22;45534;52.690;6.268;2023-02-18T00:26:12;8.70;99.90
59660;DHT22;45534;52.690;6.268;2023-02-18T00:28:39;8.60;99.90
59660;DHT22;45534;52.690;6.268;2023-02-18T00:31:23;8.60;99.90
59660;DHT22;45534;52.690;6.268;2023-02-18T00:33:49;8.60;99.90
59660;DHT22;45534;52.690;6.268;2023-02-18T00:36:17;8.60;99.90
59660;DHT22;45534;52.690;6.268;2023-02-18T00:38:48;8.60;99.90
59660;DHT22;45534;52.690;6.268;2023-02-18T00:41:14;8.60;99.90
59660;DHT22;45534;52.690;6.268;2023-02-18T00:43:40;8.60;99.90
59660;DHT22;45534;52.690;6.268;2023-02-18T00:46:06;8.60;99.90
59660;DHT22;45534;52.690;6.268;2023-02-18T00:48:33;8.60;99.90
59660;DHT22;45534;52.690;6.268;2023-02-18T00:51:00;8.60;99.90
59660;DHT22;45534;52.690;6.268;2023-02-18T00:53:27;8.70;99.90
59660;DHT22;45534;52.690;6.268;2023-02-18T00:55:53;8.60;99.90
59660;DHT22;45534;52.690;6.268;2023-02-18T00:58:19;8.70;99.90
59660;DHT22;45534;52.690;6.268;2023-02-18T01:00:44;8.70;99.90
59660;DHT22;45534;52.690;6.268;2023-02-18T01:03:12;8.70;99.90
59660;DHT22;45534;52.690;6.268;2023-02-18T01:05:38;8.70;99.90
59660;DHT22;45534;52.690;6.268;2023-02-18T01:08:05;8.70;99.90
59660;DHT22;45534;52.690;6.268;2023-02-18T01:10:31;8.70;99.90
59660;DHT22;45534;52.690;6.268;2023-02-18T01:12:57;8.70;99.90
59660;DHT22;45534;52.690;6.268;2023-02-18T01:15:23;8.70;99.90
59660;DHT22;45534;52.690;6.268;2023-02-18T01:17:49;8.70;99.90
59660;DHT22;45534;52.690;6.268;2023-02-18T01:20:17;8.70;99.90
59660;DHT22;45534;52.690;6.268;2023-02-18T01:22:43;8.70;99.90
59660;DHT22;45534;52.690;6.268;2023-02-18T01:25:10;8.80;99.90
59660;DHT22;45534;52.690;6.268;2023-02-18T01:27:36;8.80;99.90
59660;DHT22;45534;52.690;6.268;2023-02-18T01:30:03;8.80;99.90
59660;DHT22;45534;52.690;6.268;2023-02-18T01:32:29;8.80;99.90
59660;DHT22;45534;52.690;6.268;2023-02-18T01:34:55;8.80;99.90
59660;DHT22;45534;52.690;6.268;2023-02-18T01:37:21;8.90;99.90
59660;DHT22;45534;52.690;6.268;2023-02-18T01:39:46;8.90;99.90
59660;DHT22;45534;52.690;6.268;2023-02-18T01:42:20;8.90;99.90
59660;DHT22;45534;52.690;6.268;2023-02-18T01:44:47;8.90;99.90
59660;DHT22;45534;52.690;6.268;2023-02-18T01:47:14;8.90;99.90
59660;DHT22;45534;52.690;6.268;2023-02-18T01:49:40;8.90;99.90
59660;DHT22;45534;52.690;6.268;2023-02-18T01:52:14;8.90;99.90
59660;DHT22;45534;52.690;6.268;2023-02-18T01:54:44;9.00;99.90
59660;DHT22;45534;52.690;6.268;2023-02-18T01:59:49;9.00;99.90
59660;DHT22;45534;52.690;6.268;2023-02-18T02:02:19;9.00;99.90
59660;DHT22;45534;52.690;6.268;2023-02-18T02:04:46;9.00;99.90
59660;DHT22;45534;52.690;6.268;2023-02-18T02:07:12;9.00;99.90
59660;DHT22;45534;52.690;6.268;2023-02-18T02:09:40;9.00;99.90
59660;DHT22;45534;52.690;6.268;2023-02-18T02:30:46;9.00;99.90
59660;DHT22;45534;52.690;6.268;2023-02-18T02:36:20;9.00;99.90
59660;DHT22;45534;52.690;6.268;2023-02-18T02:39:11;9.00;99.90
59660;DHT22;45534;52.690;6.268;2023-02-18T02:47:29;9.10;99.90
59660;DHT22;45534;52.690;6.268;2023-02-18T02:50:08;9.10;99.90
59660;DHT22;45534;52.690;6.268;2023-02-18T02:52:45;9.10;99.90
59660;DHT22;45534;52.690;6.268;2023-02-18T02:55:12;9.10;99.90
59660;DHT22;45534;52.690;6.268;2023-02-18T02:57:53;9.10;99.90
59660;DHT22;45534;52.690;6.268;2023-02-18T03:06:14;9.20;99.90
59660;DHT22;45534;52.690;6.268;2023-02-18T03:12:03;9.30;99.90
59660;DHT22;45534;52.690;6.268;2023-02-18T03:14:57;9.30;99.90
59660;DHT22;45534;52.690;6.268;2023-02-18T03:17:29;9.30;99.90
59660;DHT22;45534;52.690;6.268;2023-02-18T03:20:19;9.30;99.90
59660;DHT22;45534;52.690;6.268;2023-02-18T03:22:47;9.30;99.90
59660;DHT22;45534;52.690;6.268;2023-02-18T03:25:15;9.30;99.90
59660;DHT22;45534;52.690;6.268;2023-02-18T03:27:54;9.30;99.90
59660;DHT22;45534;52.690;6.268;2023-02-18T03:30:26;9.30;99.90
59660;DHT22;45534;52.690;6.268;2023-02-18T03:32:56;9.30;99.90
59660;DHT22;45534;52.690;6.268;2023-02-18T03:35:24;9.30;99.90
59660;DHT22;45534;52.690;6.268;2023-02-18T03:37:56;9.30;99.90
59660;DHT22;45534;52.690;6.268;2023-02-18T03:40:26;9.30;99.90
59660;DHT22;45534;52.690;6.268;2023-02-18T03:42:52;9.30;99.90
59660;DHT22;45534;52.690;6.268;2023-02-18T03:45:18;9.30;99.90
59660;DHT22;45534;52.690;6.268;2023-02-18T03:47:44;9.30;99.90
59660;DHT22;45534;52.690;6.268;2023-02-18T03:50:10;9.30;99.90
59660;DHT22;45534;52.690;6.268;2023-02-18T03:52:36;9.30;99.90
59660;DHT22;45534;52.690;6.268;2023-02-18T03:55:04;9.40;99.90
59660;DHT22;45534;52.690;6.268;2023-02-18T03:57:31;9.40;99.90
59660;DHT22;45534;52.690;6.268;2023-02-18T03:59:57;9.40;99.90
59660;DHT22;45534;52.690;6.268;2023-02-18T04:02:22;9.40;99.90
59660;DHT22;45534;52.690;6.268;2023-02-18T04:04:48;9.40;99.90
59660;DHT22;45534;52.690;6.268;2023-02-18T04:07:14;9.40;99.90
59660;DHT22;45534;52.690;6.268;2023-02-18T04:09:39;9.40;99.90
59660;DHT22;45534;52.690;6.268;2023-02-18T04:12:05;9.40;99.90
59660;DHT22;45534;52.690;6.268;2023-02-18T04:14:31;9.40;99.90
59660;DHT22;45534;52.690;6.268;2023-02-18T04:16:56;9.40;99.90
59660;DHT22;45534;52.690;6.268;2023-02-18T04:19:22;9.40;99.90
59660;DHT22;45534;52.690;6.268;2023-02-18T04:21:48;9.40;99.90
59660;DHT22;45534;52.690;6.268;2023-02-18T04:24:13;9.40;99.90
59660;DHT22;45534;52.690;6.268;2023-02-18T04:26:39;9.40;99.90
59660;DHT22;45534;52.690;6.268;2023-02-18T04:29:05;9.40;99.90
59660;DHT22;45534;52.690;6.268;2023-02-18T04:31:31;9.50;99.90
59660;DHT22;45534;52.690;6.268;2023-02-18T04:33:56;9.40;99.90
59660;DHT22;45534;52.690;6.268;2023-02-18T04:36:22;9.40;99.90
59660;DHT22;45534;52.690;6.268;2023-02-18T04:38:48;9.40;99.90
59660;DHT22;45534;52.690;6.268;2023-02-18T04:41:13;9.40;99.90
59660;DHT22;45534;52.690;6.268;2023-02-18T04:43:39;9.40;99.90
59660;DHT22;45534;52.690;6.268;2023-02-18T04:46:04;9.40;99.90
59660;DHT22;45534;52.690;6.268;2023-02-18T04:48:30;9.40;99.90
59660;DHT22;45534;52.690;6.268;2023-02-18T04:50:56;9.40;99.90
59660;DHT22;45534;52.690;6.268;2023-02-18T04:53:22;9.40;99.90
59660;DHT22;45534;52.690;6.268;2023-02-18T04:55:51;9.40;99.90
59660;DHT22;45534;52.690;6.268;2023-02-18T04:58:17;9.40;99.90
59660;DHT22;45534;52.690;6.268;2023-02-18T05:00:43;9.40;99.90
59660;DHT22;45534;52.690;6.268;2023-02-18T05:03:09;9.40;99.90
59660;DHT22;45534;52.690;6.268;2023-02-18T05:05:35;9.40;99.90
59660;DHT22;45534;52.690;6.268;2023-02-18T05:08:01;9.40;99.90
59660;DHT22;45534;52.690;6.268;2023-02-18T05:10:26;9.40;99.90
59660;DHT22;45534;52.690;6.268;2023-02-18T05:12:52;9.40;99.90
59660;DHT22;45534;52.690;6.268;2023-02-18T05:15:18;9.40;99.90
59660;DHT22;45534;52.690;6.268;2023-02-18T05:17:43;9.40;99.90
59660;DHT22;45534;52.690;6.268;2023-02-18T05:20:09;9.40;99.90
59660;DHT22;45534;52.690;6.268;2023-02-18T05:22:35;9.40;99.90
59660;DHT22;45534;52.690;6.268;2023-02-18T05:25:01;9.40;99.90
59660;DHT22;45534;52.690;6.268;2023-02-18T05:27:27;9.40;99.90
59660;DHT22;45534;52.690;6.268;2023-02-18T05:29:52;9.50;99.90
59660;DHT22;45534;52.690;6.268;2023-02-18T05:32:18;9.50;99.90
59660;DHT22;45534;52.690;6.268;2023-02-18T05:34:44;9.50;99.90
59660;DHT22;45534;52.690;6.268;2023-02-18T05:37:10;9.50;99.90
59660;DHT22;45534;52.690;6.268;2023-02-18T05:39:36;9.50;99.90
59660;DHT22;45534;52.690;6.268;2023-02-18T05:42:02;9.50;99.90
59660;DHT22;45534;52.690;6.268;2023-02-18T05:44:28;9.50;99.90
59660;DHT22;45534;52.690;6.268;2023-02-18T05:46:59;9.50;99.90
59660;DHT22;45534;52.690;6.268;2023-02-18T05:49:26;9.50;99.90
59660;DHT22;45534;52.690;6.268;2023-02-18T05:51:52;9.50;99.90
59660;DHT22;45534;52.690;6.268;2023-02-18T05:54:17;9.50;99.90
59660;DHT22;45534;52.690;6.268;2023-02-18T05:56:43;9.50;99.90
59660;DHT22;45534;52.690;6.268;2023-02-18T05:59:09;9.50;99.90
59660;DHT22;45534;52.690;6.268;2023-02-18T06:01:35;9.50;99.90
59660;DHT22;45534;52.690;6.268;2023-02-18T06:04:00;9.60;99.90
59660;DHT22;45534;52.690;6.268;2023-02-18T06:06:26;9.60;99.90
59660;DHT22;45534;52.690;6.268;2023-02-18T06:08:52;9.60;99.90
59660;DHT22;45534;52.690;6.268;2023-02-18T06:11:17;9.60;99.90
59660;DHT22;45534;52.690;6.268;2023-02-18T06:13:43;9.60;99.90
59660;DHT22;45534;52.690;6.268;2023-02-18T06:16:09;9.60;99.90
59660;DHT22;45534;52.690;6.268;2023-02-18T06:18:34;9.60;99.90
59660;DHT22;45534;52.690;6.268;2023-02-18T06:21:00;9.60;99.90
59660;DHT22;45534;52.690;6.268;2023-02-18T06:23:25;9.60;99.90
59660;DHT22;45534;52.690;6.268;2023-02-18T06:25:51;9.60;99.90
59660;DHT22;45534;52.690;6.268;2023-02-18T06:28:17;9.70;99.90
59660;DHT22;45534;52.690;6.268;2023-02-18T06:30:46;9.70;99.90
59660;DHT22;45534;52.690;6.268;2023-02-18T06:33:12;9.70;99.90
59660;DHT22;45534;52.690;6.268;2023-02-18T06:35:38;9.70;99.90
59660;DHT22;45534;52.690;6.268;2023-02-18T06:38:04;9.70;99.90
59660;DHT22;45534;52.690;6.268;2023-02-18T06:40:29;9.80;99.90
59660;DHT22;45534;52.690;6.268;2023-02-18T06:42:56;9.80;99.90
59660;DHT22;45534;52.690;6.268;2023-02-18T06:45:22;9.80;99.90
59660;DHT22;45534;52.690;6.268;2023-02-18T06:47:48;9.80;99.90
59660;DHT22;45534;52.690;6.268;2023-02-18T06:50:14;9.90;99.90
59660;DHT22;45534;52.690;6.268;2023-02-18T06:52:40;9.90;99.90
59660;DHT22;45534;52.690;6.268;2023-02-18T06:55:06;9.90;99.90
59660;DHT22;45534;52.690;6.268;2023-02-18T06:57:34;9.90;99.90
59660;DHT22;45534;52.690;6.268;2023-02-18T07:00:00;9.90;99.90
59660;DHT22;45534;52.690;6.268;2023-02-18T07:02:26;9.90;99.90
59660;DHT22;45534;52.690;6.268;2023-02-18T07:04:52;9.90;99.90
59660;DHT22;45534;52.690;6.268;2023-02-18T07:07:18;9.90;99.90
59660;DHT22;45534;52.690;6.268;2023-02-18T07:09:43;9.90;99.90
59660;DHT22;45534;52.690;6.268;2023-02-18T07:12:09;9.80;99.90
59660;DHT22;45534;52.690;6.268;2023-02-18T07:14:35;9.80;99.90
59660;DHT22;45534;52.690;6.268;2023-02-18T07:17:00;9.80;99.90
59660;DHT22;45534;52.690;6.268;2023-02-18T07:19:26;9.80;99.90
59660;DHT22;45534;52.690;6.268;2023-02-18T07:21:52;9.90;99.90
59660;DHT22;45534;52.690;6.268;2023-02-18T07:24:22;9.80;99.90
59660;DHT22;45534;52.690;6.268;2023-02-18T07:26:48;9.80;99.90
59660;DHT22;45534;52.690;6.268;2023-02-18T07:29:13;9.80;99.90
59660;DHT22;45534;52.690;6.268;2023-02-18T07:31:39;9.80;99.90
59660;DHT22;45534;52.690;6.268;2023-02-18T07:34:05;9.90;99.90
59660;DHT22;45534;52.690;6.268;2023-02-18T07:36:30;9.80;99.90
59660;DHT22;45534;52.690;6.268;2023-02-18T07:38:56;9.80;99.90
59660;DHT22;45534;52.690;6.268;2023-02-18T07:41:22;9.80;99.90
59660;DHT22;45534;52.690;6.268;2023-02-18T07:43:48;9.80;99.90
59660;DHT22;45534;52.690;6.268;2023-02-18T07:46:14;9.90;99.90
59660;DHT22;45534;52.690;6.268;2023-02-18T07:48:40;9.90;99.90
59660;DHT22;45534;52.690;6.268;2023-02-18T07:51:08;9.90;99.90
59660;DHT22;45534;52.690;6.268;2023-02-18T07:53:34;9.90;99.90
59660;DHT22;45534;52.690;6.268;2023-02-18T07:56:00;9.90;99.90
59660;DHT22;45534;52.690;6.268;2023-02-18T07:58:32;9.90;99.90
59660;DHT22;45534;52.690;6.268;2023-02-18T08:00:58;10.00;99.90
59660;DHT22;45534;52.690;6.268;2023-02-18T08:03:26;10.00;99.90
59660;DHT22;45534;52.690;6.268;2023-02-18T08:05:52;10.00;99.90
59660;DHT22;45534;52.690;6.268;2023-02-18T08:08:24;10.00;99.90
59660;DHT22;45534;52.690;6.268;2023-02-18T08:10:50;10.10;99.90
59660;DHT22;45534;52.690;6.268;2023-02-18T08:13:16;10.10;99.90
59660;DHT22;45534;52.690;6.268;2023-02-18T08:15:42;10.10;99.90
59660;DHT22;45534;52.690;6.268;2023-02-18T08:18:15;10.10;99.90
59660;DHT22;45534;52.690;6.268;2023-02-18T08:20:41;10.20;99.90
59660;DHT22;45534;52.690;6.268;2023-02-18T08:23:06;10.20;99.90
59660;DHT22;45534;52.690;6.268;2023-02-18T08:25:32;10.30;99.90
59660;DHT22;45534;52.690;6.268;2023-02-18T08:27:58;10.30;99.90
59660;DHT22;45534;52.690;6.268;2023-02-18T08:30:25;10.30;99.90
59660;DHT22;45534;52.690;6.268;2023-02-18T08:32:50;10.30;99.90
59660;DHT22;45534;52.690;6.268;2023-02-18T08:35:17;10.30;99.90
59660;DHT22;45534;52.690;6.268;2023-02-18T08:37:43;10.30;99.90
59660;DHT22;45534;52.690;6.268;2023-02-18T08:40:09;10.30;99.90
59660;DHT22;45534;52.690;6.268;2023-02-18T08:42:35;10.30;99.90
59660;DHT22;45534;52.690;6.268;2023-02-18T08:45:01;10.30;99.90
59660;DHT22;45534;52.690;6.268;2023-02-18T08:47:26;10.30;99.90
59660;DHT22;45534;52.690;6.268;2023-02-18T08:49:53;10.20;99.90
59660;DHT22;45534;52.690;6.268;2023-02-18T08:52:19;10.30;99.90
59660;DHT22;45534;52.690;6.268;2023-02-18T08:54:45;10.20;99.90
59660;DHT22;45534;52.690;6.268;2023-02-18T08:57:11;10.20;99.90
59660;DHT22;45534;52.690;6.268;2023-02-18T08:59:37;10.10;99.90
59660;DHT22;45534;52.690;6.268;2023-02-18T09:02:02;10.10;99.90
59660;DHT22;45534;52.690;6.268;2023-02-18T09:04:29;10.10;99.90
59660;DHT22;45534;52.690;6.268;2023-02-18T09:06:55;10.00;99.90
59660;DHT22;45534;52.690;6.268;2023-02-18T09:09:20;9.90;99.90
59660;DHT22;45534;52.690;6.268;2023-02-18T09:11:46;9.80;99.90
59660;DHT22;45534;52.690;6.268;2023-02-18T09:14:12;9.80;99.90
59660;DHT22;45534;52.690;6.268;2023-02-18T09:16:38;9.80;99.90
59660;DHT22;45534;52.690;6.268;2023-02-18T09:19:05;9.70;99.90
59660;DHT22;45534;52.690;6.268;2023-02-18T09:21:32;9.80;99.90
59660;DHT22;45534;52.690;6.268;2023-02-18T09:23:58;9.70;99.90
59660;DHT22;45534;52.690;6.268;2023-02-18T09:26:24;9.80;99.90
59660;DHT22;45534;52.690;6.268;2023-02-18T09:28:51;9.70;99.90
59660;DHT22;45534;52.690;6.268;2023-02-18T09:31:20;9.70;99.90
59660;DHT22;45534;52.690;6.268;2023-02-18T09:33:49;9.70;99.90
59660;DHT22;45534;52.690;6.268;2023-02-18T09:36:16;9.70;99.90
59660;DHT22;45534;52.690;6.268;2023-02-18T09:38:42;9.60;99.90
59660;DHT22;45534;52.690;6.268;2023-02-18T09:41:38;9.60;99.90
59660;DHT22;45534;52.690;6.268;2023-02-18T09:46:56;9.60;99.90
59660;DHT22;45534;52.690;6.268;2023-02-18T09:49:29;9.60;99.90
59660;DHT22;45534;52.690;6.268;2023-02-18T09:52:13;9.60;99.90
59660;DHT22;45534;52.690;6.268;2023-02-18T09:54:39;9.60;99.90
59660;DHT22;45534;52.690;6.268;2023-02-18T09:57:09;9.60;99.90
59660;DHT22;45534;52.690;6.268;2023-02-18T09:59:42;9.60;99.90
59660;DHT22;45534;52.690;6.268;2023-02-18T10:02:13;9.60;99.90
59660;DHT22;45534;52.690;6.268;2023-02-18T10:04:43;9.60;99.90
59660;DHT22;45534;52.690;6.268;2023-02-18T10:07:29;9.60;99.90
59660;DHT22;45534;52.690;6.268;2023-02-18T10:09:56;9.70;99.90
59660;DHT22;45534;52.690;6.268;2023-02-18T10:12:25;9.80;99.90
59660;DHT22;45534;52.690;6.268;2023-02-18T10:14:56;9.80;99.90
59660;DHT22;45534;52.690;6.268;2023-02-18T10:17:25;9.90;99.90
59660;DHT22;45534;52.690;6.268;2023-02-18T10:19:52;10.00;99.90
59660;DHT22;45534;52.690;6.268;2023-02-18T10:22:19;10.10;99.90
59660;DHT22;45534;52.690;6.268;2023-02-18T10:24:54;10.10;99.90
59660;DHT22;45534;52.690;6.268;2023-02-18T10:27:36;10.20;99.90
59660;DHT22;45534;52.690;6.268;2023-02-18T10:32:43;10.30;99.90
59660;DHT22;45534;52.690;6.268;2023-02-18T10:35:33;10.40;99.90
59660;DHT22;45534;52.690;6.268;2023-02-18T10:40:34;10.50;99.90
59660;DHT22;45534;52.690;6.268;2023-02-18T10:51:51;10.50;99.90
59660;DHT22;45534;52.690;6.268;2023-02-18T10:54:23;10.50;99.90
59660;DHT22;45534;52.690;6.268;2023-02-18T10:56:51;10.50;99.90
59660;DHT22;45534;52.690;6.268;2023-02-18T10:59:25;10.50;99.90
59660;DHT22;45534;52.690;6.268;2023-02-18T11:01:55;10.60;99.90
59660;DHT22;45534;52.690;6.268;2023-02-18T11:04:27;10.60;99.90
59660;DHT22;45534;52.690;6.268;2023-02-18T11:07:03;10.60;99.90
59660;DHT22;45534;52.690;6.268;2023-02-18T11:14:48;10.70;99.90
59660;DHT22;45534;52.690;6.268;2023-02-18T11:17:27;10.70;99.90
59660;DHT22;45534;52.690;6.268;2023-02-18T11:19:59;10.70;99.90
59660;DHT22;45534;52.690;6.268;2023-02-18T11:24:56;10.70;99.90
59660;DHT22;45534;52.690;6.268;2023-02-18T11:27:25;10.60;99.90
59660;DHT22;45534;52.690;6.268;2023-02-18T11:30:03;10.60;99.90
59660;DHT22;45534;52.690;6.268;2023-02-18T11:32:30;10.70;99.90
59660;DHT22;45534;52.690;6.268;2023-02-18T11:34:58;10.70;99.90
59660;DHT22;45534;52.690;6.268;2023-02-18T11:37:24;10.70;99.90
59660;DHT22;45534;52.690;6.268;2023-02-18T11:39:52;10.80;99.90
59660;DHT22;45534;52.690;6.268;2023-02-18T11:42:21;10.90;99.90
59660;DHT22;45534;52.690;6.268;2023-02-18T11:44:57;10.90;99.90
59660;DHT22;45534;52.690;6.268;2023-02-18T11:47:34;10.90;99.90
59660;DHT22;45534;52.690;6.268;2023-02-18T11:52:34;11.00;99.90
59660;DHT22;45534;52.690;6.268;2023-02-18T11:55:21;11.00;99.90
59660;DHT22;45534;52.690;6.268;2023-02-18T11:58:00;11.00;99.90
59660;DHT22;45534;52.690;6.268;2023-02-18T12:00:42;11.10;99.90
59660;DHT22;45534;52.690;6.268;2023-02-18T12:03:27;11.20;99.90
59660;DHT22;45534;52.690;6.268;2023-02-18T12:06:00;11.40;99.90
59660;DHT22;45534;52.690;6.268;2023-02-18T12:08:31;11.50;99.90
59660;DHT22;45534;52.690;6.268;2023-02-18T12:11:04;11.70;99.90
59660;DHT22;45534;52.690;6.268;2023-02-18T12:13:35;11.80;99.90
59660;DHT22;45534;52.690;6.268;2023-02-18T12:16:23;11.90;99.90
59660;DHT22;45534;52.690;6.268;2023-02-18T12:37:59;12.00;99.90
59660;DHT22;45534;52.690;6.268;2023-02-18T13:03:19;11.70;99.90
59660;DHT22;45534;52.690;6.268;2023-02-18T13:11:58;11.50;99.90
59660;DHT22;45534;52.690;6.268;2023-02-18T13:14:30;11.50;99.90
59660;DHT22;45534;52.690;6.268;2023-02-18T13:16:59;11.40;99.90
59660;DHT22;45534;52.690;6.268;2023-02-18T13:21:58;11.40;99.90
59660;DHT22;45534;52.690;6.268;2023-02-18T13:24:34;11.40;99.90
59660;DHT22;45534;52.690;6.268;2023-02-18T13:29:46;11.50;99.90
59660;DHT22;45534;52.690;6.268;2023-02-18T13:35:00;11.50;99.90
59660;DHT22;45534;52.690;6.268;2023-02-18T13:40:31;11.60;99.90
59660;DHT22;45534;52.690;6.268;2023-02-18T13:51:05;11.60;99.90
59660;DHT22;45534;52.690;6.268;2023-02-18T13:53:35;11.60;99.90
59660;DHT22;45534;52.690;6.268;2023-02-18T13:59:18;11.60;99.90
59660;DHT22;45534;52.690;6.268;2023-02-18T14:01:51;11.60;99.90
59660;DHT22;45534;52.690;6.268;2023-02-18T14:04:47;11.60;99.90
59660;DHT22;45534;52.690;6.268;2023-02-18T14:10:05;11.60;99.90
59660;DHT22;45534;52.690;6.268;2023-02-18T14:12:37;11.50;99.90
59660;DHT22;45534;52.690;6.268;2023-02-18T14:18:22;11.50;99.90
59660;DHT22;45534;52.690;6.268;2023-02-18T14:20:49;11.50;99.90
59660;DHT22;45534;52.690;6.268;2023-02-18T14:34:05;11.40;99.90
59660;DHT22;45534;52.690;6.268;2023-02-18T14:41:55;11.30;99.90
59660;DHT22;45534;52.690;6.268;2023-02-18T14:47:31;11.30;99.90
59660;DHT22;45534;52.690;6.268;2023-02-18T14:50:00;11.30;99.90
59660;DHT22;45534;52.690;6.268;2023-02-18T14:52:37;11.30;99.90
59660;DHT22;45534;52.690;6.268;2023-02-18T14:55:06;11.30;99.90
59660;DHT22;45534;52.690;6.268;2023-02-18T14:57:35;11.30;99.90
59660;DHT22;45534;52.690;6.268;2023-02-18T15:00:01;11.30;99.90
59660;DHT22;45534;52.690;6.268;2023-02-18T15:02:28;11.30;99.90
59660;DHT22;45534;52.690;6.268;2023-02-18T15:05:17;11.30;99.90
59660;DHT22;45534;52.690;6.268;2023-02-18T15:08:01;11.30;99.90
59660;DHT22;45534;52.690;6.268;2023-02-18T15:10:35;11.30;99.90
59660;DHT22;45534;52.690;6.268;2023-02-18T15:13:04;11.20;99.90
59660;DHT22;45534;52.690;6.268;2023-02-18T15:15:33;11.20;99.90
59660;DHT22;45534;52.690;6.268;2023-02-18T15:18:02;11.20;99.90
59660;DHT22;45534;52.690;6.268;2023-02-18T15:20:31;11.10;99.90
59660;DHT22;45534;52.690;6.268;2023-02-18T15:22:58;11.10;99.90
59660;DHT22;45534;52.690;6.268;2023-02-18T15:25:24;11.10;99.90
59660;DHT22;45534;52.690;6.268;2023-02-18T15:27:51;11.00;99.90
59660;DHT22;45534;52.690;6.268;2023-02-18T15:32:51;11.00;99.90
59660;DHT22;45534;52.690;6.268;2023-02-18T15:35:19;11.00;99.90
59660;DHT22;45534;52.690;6.268;2023-02-18T15:37:53;11.00;99.90
59660;DHT22;45534;52.690;6.268;2023-02-18T15:40:19;11.00;99.90
59660;DHT22;45534;52.690;6.268;2023-02-18T15:42:49;11.00;99.90
59660;DHT22;45534;52.690;6.268;2023-02-18T15:45:21;11.00;99.90
59660;DHT22;45534;52.690;6.268;2023-02-18T15:47:50;11.00;99.90
59660;DHT22;45534;52.690;6.268;2023-02-18T15:50:20;10.90;99.90
59660;DHT22;45534;52.690;6.268;2023-02-18T15:52:47;10.90;99.90
59660;DHT22;45534;52.690;6.268;2023-02-18T15:55:34;10.90;99.90
59660;DHT22;45534;52.690;6.268;2023-02-18T15:58:03;10.90;99.90
59660;DHT22;45534;52.690;6.268;2023-02-18T16:00:34;10.90;99.90
59660;DHT22;45534;52.690;6.268;2023-02-18T16:03:15;10.90;99.90
59660;DHT22;45534;52.690;6.268;2023-02-18T16:05:42;10.90;99.90
59660;DHT22;45534;52.690;6.268;2023-02-18T16:08:26;10.80;99.90
59660;DHT22;45534;52.690;6.268;2023-02-18T16:13:20;10.80;99.90
59660;DHT22;45534;52.690;6.268;2023-02-18T16:15:48;10.80;99.90
59660;DHT22;45534;52.690;6.268;2023-02-18T16:18:37;10.80;99.90
59660;DHT22;45534;52.690;6.268;2023-02-18T16:21:24;10.80;99.90
59660;DHT22;45534;52.690;6.268;2023-02-18T16:23:54;10.80;99.90
59660;DHT22;45534;52.690;6.268;2023-02-18T16:26:27;10.70;99.90
59660;DHT22;45534;52.690;6.268;2023-02-18T16:28:54;10.70;99.90
59660;DHT22;45534;52.690;6.268;2023-02-18T16:31:24;10.70;99.90
59660;DHT22;45534;52.690;6.268;2023-02-18T16:33:50;10.70;99.90
59660;DHT22;45534;52.690;6.268;2023-02-18T16:36:17;10.60;99.90
59660;DHT22;45534;52.690;6.268;2023-02-18T16:38:44;10.60;99.90
59660;DHT22;45534;52.690;6.268;2023-02-18T16:41:12;10.60;99.90
59660;DHT22;45534;52.690;6.268;2023-02-18T16:43:38;10.60;99.90
59660;DHT22;45534;52.690;6.268;2023-02-18T16:46:08;10.60;99.90
59660;DHT22;45534;52.690;6.268;2023-02-18T16:48:42;10.60;99.90
59660;DHT22;45534;52.690;6.268;2023-02-18T16:51:15;10.50;99.90
59660;DHT22;45534;52.690;6.268;2023-02-18T16:53:43;10.50;99.90
59660;DHT22;45534;52.690;6.268;2023-02-18T16:56:17;10.50;99.90
59660;DHT22;45534;52.690;6.268;2023-02-18T16:58:43;10.50;99.90
59660;DHT22;45534;52.690;6.268;2023-02-18T17:01:30;10.50;99.90
59660;DHT22;45534;52.690;6.268;2023-02-18T17:03:57;10.50;99.90
59660;DHT22;45534;52.690;6.268;2023-02-18T17:06:23;10.40;99.90
59660;DHT22;45534;52.690;6.268;2023-02-18T17:08:49;10.40;99.90
59660;DHT22;45534;52.690;6.268;2023-02-18T17:11:29;10.30;99.90
59660;DHT22;45534;52.690;6.268;2023-02-18T17:13:55;10.30;99.90
59660;DHT22;45534;52.690;6.268;2023-02-18T17:16:27;10.30;99.90
59660;DHT22;45534;52.690;6.268;2023-02-18T17:18:53;10.30;99.90
59660;DHT22;45534;52.690;6.268;2023-02-18T17:21:20;10.30;99.90
59660;DHT22;45534;52.690;6.268;2023-02-18T17:23:48;10.20;99.90
59660;DHT22;45534;52.690;6.268;2023-02-18T17:26:21;10.20;99.90
59660;DHT22;45534;52.690;6.268;2023-02-18T17:28:49;10.20;99.90
59660;DHT22;45534;52.690;6.268;2023-02-18T17:31:18;10.20;99.90
59660;DHT22;45534;52.690;6.268;2023-02-18T17:33:44;10.20;99.90
59660;DHT22;45534;52.690;6.268;2023-02-18T17:36:11;10.10;99.90
59660;DHT22;45534;52.690;6.268;2023-02-18T17:38:37;10.10;99.90
59660;DHT22;45534;52.690;6.268;2023-02-18T17:41:04;10.10;99.90
59660;DHT22;45534;52.690;6.268;2023-02-18T17:43:30;10.10;99.90
59660;DHT22;45534;52.690;6.268;2023-02-18T17:45:56;10.10;99.90
59660;DHT22;45534;52.690;6.268;2023-02-18T17:48:22;10.10;99.90
59660;DHT22;45534;52.690;6.268;2023-02-18T17:50:49;10.10;99.90
59660;DHT22;45534;52.690;6.268;2023-02-18T17:53:17;10.10;99.90
59660;DHT22;45534;52.690;6.268;2023-02-18T17:55:45;10.10;99.90
59660;DHT22;45534;52.690;6.268;2023-02-18T17:58:12;10.00;99.90
59660;DHT22;45534;52.690;6.268;2023-02-18T18:00:40;10.00;99.90
59660;DHT22;45534;52.690;6.268;2023-02-18T18:03:07;10.10;99.90
59660;DHT22;45534;52.690;6.268;2023-02-18T18:05:35;10.00;99.90
59660;DHT22;45534;52.690;6.268;2023-02-18T18:08:01;10.00;99.90
59660;DHT22;45534;52.690;6.268;2023-02-18T18:10:30;10.00;99.90
59660;DHT22;45534;52.690;6.268;2023-02-18T18:13:05;10.00;99.90
59660;DHT22;45534;52.690;6.268;2023-02-18T18:18:00;10.00;99.90
59660;DHT22;45534;52.690;6.268;2023-02-18T18:20:27;10.00;99.90
59660;DHT22;45534;52.690;6.268;2023-02-18T18:22:55;10.00;99.90
59660;DHT22;45534;52.690;6.268;2023-02-18T18:25:31;10.00;99.90
59660;DHT22;45534;52.690;6.268;2023-02-18T18:27:57;10.00;99.90
59660;DHT22;45534;52.690;6.268;2023-02-18T18:30:26;10.00;99.90
59660;DHT22;45534;52.690;6.268;2023-02-18T18:32:52;10.00;99.90
59660;DHT22;45534;52.690;6.268;2023-02-18T18:35:24;10.00;99.90
59660;DHT22;45534;52.690;6.268;2023-02-18T18:37:51;10.00;99.90
59660;DHT22;45534;52.690;6.268;2023-02-18T18:40:19;10.00;99.90